Time;durP1;ratioP1;P1;durP2;ratioP2;P2;SDS_P1;SDS_P2;PMS_P1;PMS_P2;Temp;Humidity;BMP_temperature;BMP_pressure;BME280_temperature;BME280_humidity;BME280_pressure;Samples;Min_cycle;Max_cycle;Signal;HPM_P1;HPM_P2
2023/01/16 00:01:13;;;;;;;6.53;1.45;;;;;;;4.83;90.28;99457.81;5064405;28;20039;-74
2023/01/16 00:03:38;;;;;;;7.43;1.00;;;;;;;4.75;90.37;99457.78;5078516;28;20556;-74
2023/01/16 00:06:04;;;;;;;6.82;0.75;;;;;;;4.79;90.23;99451.38;5065758;28;20115;-74
2023/01/16 00:08:30;;;;;;;6.18;1.45;;;;;;;4.63;90.91;99452.09;5083569;28;20508;-74
2023/01/16 00:10:56;;;;;;;6.13;0.88;;;;;;;4.76;90.60;99450.88;5067571;28;20115;-74
2023/01/16 00:13:21;;;;;;;4.80;0.90;;;;;;;4.63;91.13;99441.81;5084476;28;20059;-74
2023/01/16 00:15:49;;;;;;;8.43;0.90;;;;;;;4.67;90.60;99445.69;5064929;28;20037;-74
2023/01/16 00:18:15;;;;;;;3.75;1.10;;;;;;;4.48;91.80;99433.84;5063710;28;20167;-74
2023/01/16 00:20:40;;;;;;;5.32;0.75;;;;;;;4.48;91.40;99431.28;5043043;28;20374;-74
2023/01/16 00:23:06;;;;;;;5.13;1.40;;;;;;;4.44;91.72;99437.66;5080695;28;20036;-74
2023/01/16 00:25:32;;;;;;;8.45;1.33;;;;;;;4.41;92.11;99432.81;5079712;28;20038;-74
2023/01/16 00:27:57;;;;;;;7.45;1.95;;;;;;;4.31;92.83;99439.00;5066935;28;20075;-74
2023/01/16 00:30:24;;;;;;;6.13;1.00;;;;;;;4.36;93.26;99432.47;5063677;28;20066;-74
2023/01/16 00:32:50;;;;;;;6.72;0.80;;;;;;;4.34;93.37;99425.88;5068665;28;20043;-74
2023/01/16 00:35:15;;;;;;;4.55;0.90;;;;;;;4.42;92.95;99420.78;5084639;28;20048;-73
2023/01/16 00:37:41;;;;;;;2.10;0.70;;;;;;;4.33;93.18;99417.34;5070710;28;20302;-74
2023/01/16 00:40:07;;;;;;;2.90;0.75;;;;;;;4.31;92.91;99415.91;5068323;28;20555;-74
2023/01/16 00:42:32;;;;;;;4.10;1.00;;;;;;;4.31;93.31;99409.00;5086708;28;20396;-74
2023/01/16 00:44:58;;;;;;;3.47;0.82;;;;;;;4.13;93.75;99408.22;5066439;28;20047;-74
2023/01/16 00:47:23;;;;;;;8.70;1.90;;;;;;;4.25;93.58;99401.91;5055352;28;20078;-74
2023/01/16 00:49:49;;;;;;;4.18;0.73;;;;;;;4.14;93.60;99395.22;5083342;28;20497;-74
2023/01/16 00:52:14;;;;;;;5.75;0.90;;;;;;;4.16;93.87;99387.41;5087500;28;20031;-74
2023/01/16 00:54:40;;;;;;;4.57;0.88;;;;;;;4.14;93.82;99387.53;5066905;28;20582;-74
2023/01/16 00:57:05;;;;;;;8.93;1.08;;;;;;;4.18;93.57;99385.47;5065161;28;20024;-74
2023/01/16 00:59:31;;;;;;;2.85;0.70;;;;;;;4.11;94.02;99387.84;5083527;28;20598;-74
2023/01/16 01:01:56;;;;;;;4.43;1.00;;;;;;;4.10;94.39;99381.09;5082538;28;20214;-74
2023/01/16 01:04:22;;;;;;;4.45;1.08;;;;;;;4.05;94.33;99370.47;5087870;28;20137;-74
2023/01/16 01:06:47;;;;;;;4.32;1.00;;;;;;;4.09;94.86;99364.09;5068512;28;20047;-74
2023/01/16 01:09:13;;;;;;;6.22;0.82;;;;;;;4.01;94.67;99359.72;5068615;28;20074;-74
2023/01/16 01:11:38;;;;;;;4.57;1.00;;;;;;;3.96;95.08;99361.13;5067255;28;20085;-74
2023/01/16 01:14:04;;;;;;;7.07;1.10;;;;;;;3.92;94.92;99352.09;5084392;28;20102;-74
2023/01/16 01:16:29;;;;;;;7.32;1.77;;;;;;;3.89;95.37;99346.31;5086479;28;20059;-74
2023/01/16 01:18:55;;;;;;;4.68;0.90;;;;;;;3.97;94.87;99352.47;5052378;28;20024;-74
2023/01/16 01:21:20;;;;;;;8.40;0.63;;;;;;;3.92;95.32;99334.13;5067224;28;20616;-74
2023/01/16 01:23:46;;;;;;;5.00;0.90;;;;;;;3.90;95.26;99334.31;5082641;28;20319;-74
2023/01/16 01:26:14;;;;;;;5.68;1.30;;;;;;;3.96;95.05;99326.00;5080677;28;20724;-74
2023/01/16 01:28:40;;;;;;;6.35;0.80;;;;;;;3.87;95.10;99325.13;5086971;28;20032;-74
2023/01/16 01:31:08;;;;;;;7.28;1.20;;;;;;;3.79;95.97;99326.84;5053246;28;20044;-74
2023/01/16 01:33:34;;;;;;;9.50;1.10;;;;;;;3.84;96.35;99316.94;5063972;28;20043;-74
2023/01/16 01:36:01;;;;;;;2.80;0.90;;;;;;;3.79;96.42;99322.50;5067830;28;20037;-74
2023/01/16 01:38:26;;;;;;;3.97;1.33;;;;;;;3.68;96.45;99315.84;5067987;28;20476;-74
2023/01/16 01:40:52;;;;;;;5.65;1.30;;;;;;;3.66;96.74;99314.38;5088030;28;20028;-75
2023/01/16 01:43:18;;;;;;;4.68;0.95;;;;;;;3.62;97.30;99313.88;5069440;28;20024;-74
2023/01/16 01:45:54;;;;;;;11.25;1.50;;;;;;;3.66;97.43;99307.50;5067219;28;20139;-74
2023/01/16 01:48:26;;;;;;;7.00;0.98;;;;;;;3.59;97.61;99293.66;5067870;28;20174;-74
2023/01/16 01:50:58;;;;;;;8.97;1.87;;;;;;;3.60;97.36;99295.28;5065672;28;20143;-74
2023/01/16 01:53:35;;;;;;;9.40;1.42;;;;;;;3.71;97.55;99278.84;5087535;28;20028;-74
2023/01/16 01:56:08;;;;;;;4.32;1.08;;;;;;;3.88;96.41;99283.16;5085538;28;20445;-74
2023/01/16 01:58:34;;;;;;;8.35;1.08;;;;;;;3.84;96.42;99273.34;5051485;28;20490;-74
2023/01/16 02:01:01;;;;;;;5.60;0.68;;;;;;;3.88;96.18;99264.38;5070914;28;20079;-74
2023/01/16 02:03:34;;;;;;;7.38;0.90;;;;;;;3.80;96.36;99256.63;5068782;28;20440;-74
2023/01/16 02:06:05;;;;;;;5.22;0.80;;;;;;;3.74;96.42;99259.81;5083347;28;20044;-74
2023/01/16 02:08:33;;;;;;;6.28;0.90;;;;;;;3.77;97.12;99259.50;5083308;28;20032;-74
2023/01/16 02:11:25;;;;;;;8.80;1.10;;;;;;;3.76;97.22;99245.88;5070149;28;20132;-74
2023/01/16 02:14:00;;;;;;;6.65;1.40;;;;;;;3.77;97.04;99246.66;5066625;28;20043;-74
2023/01/16 02:20:08;;;;;;;6.25;1.52;;;;;;;3.73;97.19;99224.84;5062931;28;20423;-74
2023/01/16 02:22:58;;;;;;;4.70;1.17;;;;;;;3.76;97.03;99227.94;5031166;28;20053;-74
2023/01/16 02:25:42;;;;;;;6.00;1.23;;;;;;;3.70;96.76;99224.19;5050459;28;20515;-74
2023/01/16 02:28:38;;;;;;;2.08;0.85;;;;;;;3.60;97.04;99212.41;5085523;28;20493;-74
2023/01/16 02:31:12;;;;;;;6.13;1.13;;;;;;;3.68;97.06;99202.25;5065213;28;20036;-74
2023/01/16 02:34:09;;;;;;;5.97;1.15;;;;;;;3.58;96.99;99201.50;5067770;28;20430;-74
2023/01/16 02:36:46;;;;;;;5.57;0.90;;;;;;;3.56;97.69;99196.56;5085515;28;20048;-74
2023/01/16 02:39:29;;;;;;;4.30;0.80;;;;;;;3.48;97.78;99193.94;5068329;28;20511;-74
2023/01/16 02:42:13;;;;;;;3.92;1.10;;;;;;;3.46;98.16;99185.59;5067865;28;20047;-74
2023/01/16 02:44:56;;;;;;;7.68;1.20;;;;;;;3.42;97.98;99177.38;5081330;28;20028;-74
2023/01/16 02:47:31;;;;;;;7.45;1.10;;;;;;;3.42;98.31;99172.25;5086320;28;20100;-74
2023/01/16 02:50:18;;;;;;;5.57;1.10;;;;;;;3.49;97.57;99173.28;5066231;28;20043;-74
2023/01/16 02:55:26;;;;;;;7.95;1.00;;;;;;;3.36;98.13;99164.38;5027443;28;20048;-80
2023/01/16 02:57:58;;;;;;;5.85;1.00;;;;;;;3.43;97.92;99148.25;5025352;28;20040;-78
2023/01/16 03:00:24;;;;;;;9.75;1.10;;;;;;;3.41;97.88;99133.97;5013322;28;20067;-79
2023/01/16 03:02:51;;;;;;;6.15;1.42;;;;;;;3.29;97.92;99128.28;5029224;28;21650;-79
2023/01/16 03:05:16;;;;;;;5.93;1.33;;;;;;;3.30;98.09;99109.41;5046544;28;20029;-79
2023/01/16 03:07:55;;;;;;;4.05;1.17;;;;;;;3.33;97.93;99106.53;5032412;28;20500;-78
2023/01/16 03:10:40;;;;;;;7.13;1.42;;;;;;;3.29;97.51;99098.34;5015705;28;20040;-79
2023/01/16 03:13:35;;;;;;;4.85;0.85;;;;;;;3.24;97.73;99084.38;5029193;28;20064;-79
2023/01/16 03:16:16;;;;;;;7.50;1.33;;;;;;;3.30;97.75;99083.78;5027550;28;20421;-79
2023/01/16 03:19:10;;;;;;;11.15;1.15;;;;;;;3.20;97.64;99076.22;5007112;28;20044;-79
2023/01/16 03:21:54;;;;;;;;;;;;;;;3.12;98.29;99074.38;5031924;28;20594;-79
2023/01/16 03:24:55;;;;;;;4.00;0.90;;;;;;;3.18;98.38;99055.03;5026578;28;20671;-80
2023/01/16 03:27:39;;;;;;;7.90;1.00;;;;;;;3.20;97.87;99048.03;5026736;28;20046;-80
2023/01/16 03:30:31;;;;;;;4.00;0.90;;;;;;;3.17;98.25;99045.75;5030264;28;20135;-79
2023/01/16 03:33:05;;;;;;;3.83;0.90;;;;;;;3.20;97.92;99042.91;5032410;28;20123;-79
2023/01/16 03:35:40;;;;;;;11.00;2.70;;;;;;;3.14;98.20;99033.25;5015082;28;20408;-79
2023/01/16 03:38:12;;;;;;;4.20;0.93;;;;;;;3.12;98.31;99025.72;5034001;28;20412;-80
2023/01/16 03:40:42;;;;;;;4.40;1.00;;;;;;;3.12;97.82;99022.34;5006274;28;20555;-80
2023/01/16 03:43:21;;;;;;;3.70;0.75;;;;;;;3.09;97.73;99015.00;5030217;28;20029;-79
2023/01/16 03:45:54;;;;;;;12.25;1.05;;;;;;;3.14;97.62;99014.53;5027263;28;20037;-79
2023/01/16 03:48:27;;;;;;;6.53;1.92;;;;;;;3.08;97.27;99015.94;5043385;28;20032;-79
2023/01/16 03:50:54;;;;;;;;;;;;;;;3.11;96.98;99002.84;5026893;28;20044;-80
2023/01/16 03:53:25;;;;;;;4.40;0.73;;;;;;;3.17;97.23;99001.41;5040446;28;20011;-76
2023/01/16 03:56:00;;;;;;;2.50;0.60;;;;;;;3.03;97.42;98993.34;5022835;28;20048;-78
2023/01/16 03:58:35;;;;;;;5.90;1.00;;;;;;;3.01;97.87;98984.19;5046519;28;20037;-79
2023/01/16 04:01:22;;;;;;;4.43;0.55;;;;;;;3.04;97.78;98974.44;5023828;28;20108;-79
2023/01/16 04:04:03;;;;;;;8.60;0.75;;;;;;;2.98;98.44;98967.38;5035146;28;20044;-79
2023/01/16 04:06:28;;;;;;;3.85;0.65;;;;;;;3.05;98.40;98947.91;5025801;28;20041;-79
2023/01/16 04:08:57;;;;;;;5.28;0.60;;;;;;;3.00;98.39;98949.31;5010323;28;20187;-79
2023/01/16 04:11:25;;;;;;;4.03;0.50;;;;;;;3.03;98.06;98937.00;5032512;28;20105;-80
2023/01/16 04:13:56;;;;;;;1.25;0.40;;;;;;;2.98;97.98;98918.72;5031191;28;20048;-78
2023/01/16 04:16:22;;;;;;;1.40;0.30;;;;;;;2.89;98.27;98920.44;5030566;28;20053;-79
2023/01/16 04:18:51;;;;;;;2.72;0.47;;;;;;;2.90;98.44;98911.81;5030539;28;20103;-79
2023/01/16 04:21:17;;;;;;;6.05;0.50;;;;;;;2.92;98.58;98893.75;5035134;28;20040;-79
2023/01/16 04:23:42;;;;;;;2.65;0.40;;;;;;;3.05;97.55;98881.31;5015865;28;20052;-79
2023/01/16 04:26:08;;;;;;;3.28;0.70;;;;;;;2.95;97.88;98878.06;5026095;28;20045;-79
2023/01/16 04:28:34;;;;;;;3.53;1.80;;;;;;;2.85;98.13;98864.56;5019703;28;20107;-79
2023/01/16 04:30:59;;;;;;;3.90;0.63;;;;;;;2.83;98.67;98861.38;5049008;28;20479;-79
2023/01/16 04:33:25;;;;;;;2.58;0.50;;;;;;;2.85;98.96;98859.47;5015746;28;20041;-79
2023/01/16 04:35:50;;;;;;;7.63;1.65;;;;;;;2.81;98.78;98856.41;5027117;28;20108;-78
2023/01/16 04:38:16;;;;;;;4.18;1.60;;;;;;;2.84;98.88;98852.72;5019220;28;20033;-79
2023/01/16 04:40:41;;;;;;;2.10;0.50;;;;;;;2.88;98.21;98848.88;5035780;28;20409;-79
2023/01/16 04:43:07;;;;;;;2.65;0.90;;;;;;;2.84;98.24;98827.91;5035218;28;20529;-78
2023/01/16 04:45:32;;;;;;;6.22;0.75;;;;;;;2.77;98.65;98813.31;5029418;28;20037;-79
2023/01/16 04:47:57;;;;;;;1.98;0.50;;;;;;;2.90;98.22;98811.13;5034278;28;20025;-80
2023/01/16 04:50:23;;;;;;;2.15;0.70;;;;;;;2.92;97.74;98797.25;5017972;28;20037;-79
2023/01/16 04:52:48;;;;;;;5.82;0.98;;;;;;;2.86;97.68;98794.47;5011752;28;20927;-78
2023/01/16 04:55:14;;;;;;;4.38;1.15;;;;;;;2.93;98.23;98785.22;5019898;28;20053;-80
2023/01/16 04:57:40;;;;;;;4.30;0.88;;;;;;;3.00;98.17;98778.53;5018661;28;20080;-78
2023/01/16 05:00:09;;;;;;;10.00;1.90;;;;;;;2.92;98.39;98766.50;5034598;28;20048;-79
2023/01/16 05:02:34;;;;;;;5.95;1.83;;;;;;;3.01;99.01;98762.19;5015207;28;20037;-79
2023/01/16 05:05:00;;;;;;;2.08;0.60;;;;;;;3.04;99.33;98740.63;5028347;28;20033;-78
2023/01/16 05:07:27;;;;;;;3.63;0.70;;;;;;;3.03;99.42;98744.13;5028593;28;20048;-78
2023/01/16 05:09:53;;;;;;;3.88;0.85;;;;;;;3.07;99.69;98740.28;5030845;28;20048;-79
2023/01/16 05:12:18;;;;;;;12.32;1.05;;;;;;;3.08;100.00;98739.34;5017138;28;20053;-77
2023/01/16 05:14:43;;;;;;;1.73;0.75;;;;;;;3.17;99.58;98732.47;5014961;28;20033;-78
2023/01/16 05:17:09;;;;;;;6.90;0.90;;;;;;;3.17;100.00;98724.78;5029535;28;20079;-79
2023/01/16 05:19:34;;;;;;;6.20;0.70;;;;;;;3.22;100.00;98718.22;5009240;28;20041;-81
2023/01/16 05:22:00;;;;;;;4.65;1.15;;;;;;;3.18;100.00;98711.00;5032176;28;20433;-79
2023/01/16 05:24:25;;;;;;;3.20;0.77;;;;;;;3.14;100.00;98704.59;5049691;28;20035;-78
2023/01/16 05:26:51;;;;;;;5.35;1.20;;;;;;;3.25;100.00;98692.28;5026370;28;20941;-78
2023/01/16 05:29:16;;;;;;;4.80;1.15;;;;;;;3.28;100.00;98683.50;5046654;28;20087;-80
2023/01/16 05:31:42;;;;;;;2.40;0.85;;;;;;;3.36;100.00;98677.56;5026296;28;20575;-77
2023/01/16 05:34:08;;;;;;;2.97;0.95;;;;;;;3.36;100.00;98664.75;5049074;28;20505;-80
2023/01/16 05:36:34;;;;;;;4.63;1.60;;;;;;;3.34;100.00;98662.34;5020691;28;20524;-79
2023/01/16 05:38:59;;;;;;;2.08;1.00;;;;;;;3.48;100.00;98666.00;5039361;28;20033;-80
2023/01/16 05:41:25;;;;;;;7.75;1.13;;;;;;;3.49;100.00;98654.81;5035466;28;20497;-82
2023/01/16 05:43:50;;;;;;;5.82;1.63;;;;;;;3.45;100.00;98646.63;5023991;28;20043;-79
2023/01/16 05:46:17;;;;;;;4.47;1.23;;;;;;;3.42;100.00;98639.25;5032728;28;20049;-79
2023/01/16 05:48:42;;;;;;;5.57;1.25;;;;;;;3.41;100.00;98630.00;5035175;28;20031;-79
2023/01/16 05:51:08;;;;;;;5.13;1.00;;;;;;;3.44;100.00;98629.66;5027939;28;20045;-79
2023/01/16 05:53:33;;;;;;;4.25;1.13;;;;;;;3.48;100.00;98613.00;5046603;28;20094;-77
2023/01/16 05:56:00;;;;;;;3.22;0.90;;;;;;;3.51;100.00;98596.50;5009919;28;20041;-78
2023/01/16 05:58:26;;;;;;;7.10;1.40;;;;;;;3.55;99.87;98599.53;5042435;28;20428;-78
2023/01/16 06:00:51;;;;;;;5.40;0.80;;;;;;;3.62;99.46;98593.59;5030265;28;20087;-80
2023/01/16 06:03:18;;;;;;;4.22;0.80;;;;;;;3.61;99.12;98580.94;5048745;28;20508;-79
2023/01/16 06:05:43;;;;;;;4.55;1.20;;;;;;;3.58;99.47;98574.38;5044271;28;20033;-79
2023/01/16 06:08:09;;;;;;;3.30;0.93;;;;;;;3.62;99.09;98565.41;5044610;28;20060;-79
2023/01/16 06:10:35;;;;;;;7.55;1.30;;;;;;;3.65;99.11;98570.16;5047308;28;20098;-78
2023/01/16 06:13:02;;;;;;;2.83;1.35;;;;;;;3.69;99.03;98555.25;5027781;28;20067;-78
2023/01/16 06:15:28;;;;;;;8.13;1.55;;;;;;;3.74;98.59;98549.66;5029547;28;20110;-79
2023/01/16 06:17:55;;;;;;;4.65;1.40;;;;;;;3.80;97.95;98538.72;5029121;28;20366;-78
2023/01/16 06:20:20;;;;;;;10.52;1.13;;;;;;;3.79;98.43;98526.88;5031774;28;20037;-79
2023/01/16 06:22:46;;;;;;;8.10;1.30;;;;;;;3.84;97.74;98520.28;5030847;28;20040;-79
2023/01/16 06:25:11;;;;;;;4.30;0.93;;;;;;;3.84;97.53;98512.59;5028229;28;20044;-79
2023/01/16 06:27:37;;;;;;;9.50;1.08;;;;;;;3.89;97.20;98494.91;5025618;28;20370;-80
2023/01/16 06:30:05;;;;;;;1.65;0.55;;;;;;;3.89;97.48;98497.50;5027745;28;20053;-79
2023/01/16 06:32:30;;;;;;;2.38;0.75;;;;;;;3.87;97.74;98490.94;5012684;28;20059;-79
2023/01/16 06:34:56;;;;;;;5.57;0.85;;;;;;;3.88;97.20;98488.22;5029590;28;20401;-78
2023/01/16 06:37:21;;;;;;;4.88;1.00;;;;;;;3.94;96.79;98476.47;5044367;28;20040;-79
2023/01/16 06:39:47;;;;;;;4.03;0.68;;;;;;;3.99;96.70;98468.25;5043357;28;20034;-77
2023/01/16 06:42:12;;;;;;;1.50;0.60;;;;;;;4.01;96.89;98468.88;5017840;28;20033;-79
2023/01/16 06:44:37;;;;;;;5.35;0.90;;;;;;;4.01;96.80;98463.75;5030359;28;20028;-81
2023/01/16 06:47:04;;;;;;;5.93;1.00;;;;;;;4.06;96.41;98462.28;5012725;28;20032;-78
2023/01/16 06:49:29;;;;;;;5.28;0.68;;;;;;;4.06;96.27;98441.75;5029627;28;20047;-79
2023/01/16 06:51:54;;;;;;;1.75;0.80;;;;;;;4.04;96.29;98440.34;5015489;28;20025;-80
2023/01/16 06:54:20;;;;;;;4.03;0.63;;;;;;;4.08;95.53;98421.09;5029692;28;20389;-80
2023/01/16 06:56:45;;;;;;;2.65;0.47;;;;;;;4.12;95.60;98434.38;5042733;28;20029;-79
2023/01/16 06:59:11;;;;;;;6.18;1.23;;;;;;;4.10;95.78;98417.38;5027193;28;20496;-80
2023/01/16 07:01:36;;;;;;;6.97;0.90;;;;;;;4.07;95.88;98422.84;5015136;28;20033;-80
2023/01/16 07:04:02;;;;;;;2.92;0.60;;;;;;;4.14;95.23;98414.47;5013397;28;20026;-80
2023/01/16 07:06:27;;;;;;;1.65;0.60;;;;;;;4.16;95.19;98404.81;5014725;28;20041;-77
2023/01/16 07:08:53;;;;;;;2.90;0.98;;;;;;;4.16;95.03;98392.00;5019547;28;20044;-83
2023/01/16 07:11:19;;;;;;;4.45;0.70;;;;;;;4.13;95.13;98369.28;5030933;28;20037;-81
2023/01/16 07:13:45;;;;;;;1.77;0.60;;;;;;;4.14;95.17;98365.72;5031677;28;20063;-78
2023/01/16 07:24:31;;;;;;;2.35;0.68;;;;;;;4.21;95.83;98315.34;5031244;28;20116;-80
2023/01/16 07:27:00;;;;;;;8.68;1.00;;;;;;;4.16;96.94;98309.91;5028393;28;20017;-77
2023/01/16 07:29:29;;;;;;;4.82;0.80;;;;;;;4.13;97.25;98311.06;5048121;28;20044;-79
2023/01/16 07:31:55;;;;;;;3.20;0.80;;;;;;;4.11;97.17;98292.50;5034892;28;20037;-79
2023/01/16 07:34:22;;;;;;;2.40;0.60;;;;;;;4.14;97.12;98279.31;5030905;28;20438;-78
2023/01/16 07:36:48;;;;;;;2.63;1.10;;;;;;;4.14;97.06;98270.81;5030688;28;20045;-78
2023/01/16 07:39:13;;;;;;;5.93;0.80;;;;;;;4.16;96.94;98258.63;5029872;28;20423;-78
2023/01/16 07:41:38;;;;;;;3.33;0.80;;;;;;;4.15;97.40;98259.59;5021323;28;20052;-78
2023/01/16 07:44:06;;;;;;;6.88;0.65;;;;;;;4.20;97.16;98254.72;5031196;28;20393;-79
2023/01/16 07:46:32;;;;;;;2.35;0.95;;;;;;;4.15;97.63;98252.69;5028446;28;20044;-79
2023/01/16 07:48:58;;;;;;;2.33;1.10;;;;;;;4.17;97.55;98244.84;5030619;28;20033;-79
2023/01/16 07:51:24;;;;;;;3.50;0.73;;;;;;;4.08;98.45;98246.69;5032207;28;20035;-77
2023/01/16 07:53:49;;;;;;;5.35;1.30;;;;;;;4.04;98.81;98240.31;5028726;28;20103;-78
2023/01/16 07:56:15;;;;;;;3.58;1.08;;;;;;;4.13;98.57;98223.06;5028374;28;20077;-80
2023/01/16 07:58:42;;;;;;;2.05;1.15;;;;;;;4.09;98.71;98220.06;5028094;28;20124;-79
2023/01/16 08:01:09;;;;;;;3.30;1.05;;;;;;;4.07;98.82;98216.88;5029985;28;20515;-79
2023/01/16 08:03:35;;;;;;;2.67;1.20;;;;;;;4.06;99.55;98210.16;5009240;28;20397;-78
2023/01/16 08:06:02;;;;;;;4.57;1.25;;;;;;;4.11;99.96;98213.00;5012173;28;20041;-78
2023/01/16 08:08:28;;;;;;;3.25;1.25;;;;;;;4.08;100.00;98205.63;5044974;28;20668;-79
2023/01/16 08:10:56;;;;;;;5.53;1.95;;;;;;;4.09;99.69;98200.34;5028682;28;20408;-78
2023/01/16 08:13:22;;;;;;;5.28;1.52;;;;;;;4.05;99.62;98186.28;5049958;28;20466;-79
2023/01/16 08:15:48;;;;;;;6.38;1.60;;;;;;;4.11;99.63;98195.03;5026186;28;20136;-81
2023/01/16 08:18:14;;;;;;;5.15;1.50;;;;;;;4.03;100.00;98177.16;5042639;28;20037;-79
2023/01/16 08:20:41;;;;;;;6.40;1.52;;;;;;;4.12;99.79;98170.97;5019668;28;20120;-79
2023/01/16 08:23:06;;;;;;;2.90;1.60;;;;;;;4.17;99.35;98175.56;5033321;28;20115;-79
2023/01/16 08:25:32;;;;;;;6.50;1.90;;;;;;;4.14;99.55;98165.66;5017127;28;20053;-79
2023/01/16 08:27:58;;;;;;;10.30;1.70;;;;;;;4.10;98.91;98150.63;5031759;28;20469;-79
2023/01/16 08:30:23;;;;;;;7.63;1.85;;;;;;;4.06;99.58;98153.72;5047640;28;20993;-79
2023/01/16 08:32:49;;;;;;;5.32;1.55;;;;;;;4.05;99.96;98149.56;5015244;28;20033;-78
2023/01/16 08:35:14;;;;;;;7.45;1.67;;;;;;;4.12;100.00;98139.41;5023833;23;20050;-75
2023/01/16 08:37:48;;;;;;;4.22;1.55;;;;;;;4.10;100.00;98137.00;5029256;28;20075;-75
2023/01/16 08:40:14;;;;;;;8.43;1.60;;;;;;;4.13;100.00;98123.06;5020771;28;20436;-75
2023/01/16 08:51:22;;;;;;;7.30;1.73;;;;;;;3.96;100.00;98118.13;5000365;28;20100;-75
2023/01/16 08:53:48;;;;;;;4.85;1.33;;;;;;;3.90;100.00;98106.00;5020078;28;20128;-73
2023/01/16 08:56:13;;;;;;;5.20;1.25;;;;;;;3.86;100.00;98104.75;5025318;28;20081;-74
2023/01/16 08:58:39;;;;;;;2.83;1.13;;;;;;;3.90;100.00;98090.63;5027221;28;20453;-73
2023/01/16 09:01:05;;;;;;;6.05;1.17;;;;;;;3.79;100.00;98098.78;5025901;28;20087;-74
2023/01/16 09:03:30;;;;;;;4.30;1.35;;;;;;;3.83;100.00;98094.88;5009803;28;20539;-74
2023/01/16 09:05:56;;;;;;;6.95;2.08;;;;;;;3.83;100.00;98094.88;5010240;28;20492;-75
2023/01/16 09:08:21;;;;;;;5.93;1.55;;;;;;;3.84;100.00;98089.56;5011347;28;20037;-74
2023/01/16 09:13:48;;;;;;;8.48;1.50;;;;;;;3.84;100.00;98096.44;5022878;28;20038;-75
2023/01/16 09:13:50;;;;;;;2.80;1.20;;;;;;;3.89;100.00;98086.47;5027353;28;20090;-74
2023/01/16 09:16:22;;;;;;;6.88;1.48;;;;;;;3.82;100.00;98083.81;5022323;28;20095;-74
2023/01/16 09:18:48;;;;;;;11.43;1.17;;;;;;;3.86;100.00;98062.00;5027556;28;20038;-73
2023/01/16 09:21:14;;;;;;;4.38;1.13;;;;;;;3.87;100.00;98055.09;5049205;22;20409;-77
2023/01/16 09:23:40;;;;;;;7.32;1.00;;;;;;;3.85;100.00;98057.03;5064834;28;20036;-78
2023/01/16 09:26:06;;;;;;;7.28;1.10;;;;;;;3.90;100.00;98065.78;5077367;28;20501;-76
2023/01/16 09:28:31;;;;;;;6.68;0.98;;;;;;;3.95;100.00;98054.19;5054467;28;20105;-78
2023/01/16 09:30:57;;;;;;;5.35;1.40;;;;;;;3.93;100.00;98054.34;5055303;28;20456;-77
2023/01/16 09:33:22;;;;;;;9.52;1.33;;;;;;;3.95;100.00;98049.84;5078677;28;20032;-78
2023/01/16 09:35:48;;;;;;;9.88;1.65;;;;;;;3.97;100.00;98052.22;5061174;28;20032;-77
2023/01/16 09:38:13;;;;;;;6.32;1.13;;;;;;;3.88;100.00;98038.72;5047079;28;20044;-77
2023/01/16 09:40:46;;;;;;;5.63;1.40;;;;;;;3.92;100.00;98039.97;5062081;28;20028;-77
2023/01/16 09:43:38;;;;;;;4.15;1.13;;;;;;;3.94;100.00;98045.69;5062186;28;20124;-78
2023/01/16 09:46:32;;;;;;;3.22;1.33;;;;;;;3.94;100.00;98039.75;5060246;28;20043;-78
2023/01/16 09:49:03;;;;;;;4.75;0.80;;;;;;;3.97;100.00;98035.06;5056030;28;20064;-78
2023/01/16 09:51:38;;;;;;;3.03;0.98;;;;;;;4.02;100.00;98022.50;5058723;28;20059;-78
2023/01/16 09:59:54;;;;;;;1.95;0.82;;;;;;;3.99;100.00;98012.59;5057584;28;20039;-78
2023/01/16 10:02:29;;;;;;;2.30;0.80;;;;;;;3.98;100.00;98030.75;5043968;28;20117;-78
2023/01/16 10:04:55;;;;;;;4.35;0.68;;;;;;;4.02;100.00;98009.69;5076911;28;20032;-77
2023/01/16 10:07:37;;;;;;;3.30;0.95;;;;;;;4.04;100.00;98009.50;5061952;28;20032;-78
2023/01/16 10:10:40;;;;;;;2.92;0.85;;;;;;;4.00;99.56;97995.47;5045381;28;20087;-77
2023/01/16 10:13:31;;;;;;;2.75;0.80;;;;;;;4.09;99.33;97989.25;5045042;28;20032;-78
2023/01/16 10:16:29;;;;;;;5.15;1.20;;;;;;;4.09;99.70;97981.56;5063068;28;20037;-78
2023/01/16 10:19:12;;;;;;;3.38;1.48;;;;;;;4.08;99.74;97972.25;5050423;28;20538;-77
2023/01/16 10:21:54;;;;;;;3.83;1.23;;;;;;;4.20;98.70;97978.50;5042274;28;20098;-78
2023/01/16 10:24:37;;;;;;;3.45;1.02;;;;;;;4.15;98.62;97965.44;5055810;28;20039;-78
2023/01/16 10:27:18;;;;;;;5.65;1.02;;;;;;;4.15;97.83;97960.31;5045162;28;20050;-77
2023/01/16 10:29:57;;;;;;;6.30;1.30;;;;;;;4.15;98.29;97941.56;5076467;28;20599;-78
2023/01/16 10:32:26;;;;;;;2.80;0.80;;;;;;;4.17;98.01;97940.38;5067109;28;20107;-77
2023/01/16 10:35:00;;;;;;;1.75;0.70;;;;;;;4.16;98.41;97949.03;5076272;28;20196;-77
2023/01/16 10:37:26;;;;;;;2.38;0.88;;;;;;;4.27;97.93;97943.41;5046978;28;20047;-79
2023/01/16 10:39:54;;;;;;;5.10;1.33;;;;;;;4.27;97.79;97932.38;5062983;28;20059;-79
2023/01/16 10:51:02;;;;;;;4.97;0.65;;;;;;;4.42;95.99;97920.25;5078068;28;20036;-78
2023/01/16 10:53:29;;;;;;;4.32;0.73;;;;;;;4.45;95.21;97903.72;5065451;28;20035;-78
2023/01/16 10:55:56;;;;;;;3.15;0.82;;;;;;;4.52;95.55;97903.72;5057197;28;20050;-78
2023/01/16 10:58:24;;;;;;;4.80;1.55;;;;;;;4.53;95.36;97892.50;5053394;28;20065;-78
2023/01/16 11:00:51;;;;;;;2.13;0.90;;;;;;;4.58;95.24;97878.13;5063561;28;20044;-78
2023/01/16 11:03:23;;;;;;;4.05;0.60;;;;;;;4.58;95.17;97873.00;5056498;28;20398;-77
2023/01/16 11:05:48;;;;;;;6.97;0.80;;;;;;;4.61;95.01;97862.34;5074229;28;20052;-78
2023/01/16 11:08:17;;;;;;;3.97;0.82;;;;;;;4.70;95.11;97864.75;5054383;28;20032;-77
2023/01/16 11:10:50;;;;;;;4.40;0.85;;;;;;;4.61;95.18;97851.28;5062335;28;20407;-79
2023/01/16 11:19:20;;;;;;;3.30;0.90;;;;;;;4.57;94.81;97834.69;5045930;28;20043;-78
2023/01/16 11:21:51;;;;;;;3.40;0.63;;;;;;;4.59;95.62;97817.31;5053453;28;20044;-78
2023/01/16 11:24:28;;;;;;;3.23;0.63;;;;;;;4.70;94.66;97816.78;5080304;28;20151;-77
2023/01/16 11:26:57;;;;;;;1.58;0.68;;;;;;;4.66;94.15;97818.94;5055226;28;20486;-77
2023/01/16 11:29:25;;;;;;;1.65;0.40;;;;;;;4.67;94.12;97814.59;5074220;28;20042;-78
2023/01/16 11:31:56;;;;;;;3.55;0.70;;;;;;;4.75;93.85;97801.59;5063086;28;20039;-77
2023/01/16 11:34:27;;;;;;;2.17;0.63;;;;;;;4.71;93.69;97802.97;5065367;28;20031;-78
2023/01/16 11:37:05;;;;;;;4.70;1.83;;;;;;;4.81;94.16;97794.91;5060159;28;20039;-77
2023/01/16 11:39:34;;;;;;;2.45;1.10;;;;;;;4.80;93.20;97788.19;5051521;28;20036;-77
2023/01/16 11:46:01;;;;;;;2.20;0.93;;;;;;;4.83;93.79;97773.19;5076076;28;20385;-78
2023/01/16 11:47:41;;;;;;;3.03;0.60;;;;;;;4.79;93.10;97771.22;5076419;28;20069;-76
2023/01/16 11:50:21;;;;;;;2.80;0.63;;;;;;;4.74;94.46;97766.63;5045762;28;20040;-78
2023/01/16 11:52:47;;;;;;;1.67;0.70;;;;;;;4.67;95.53;97758.94;5064979;28;20032;-77
2023/01/16 11:55:14;;;;;;;5.13;0.77;;;;;;;4.68;95.87;97757.13;5049134;28;20414;-78
2023/01/16 11:57:57;;;;;;;1.73;0.60;;;;;;;4.55;96.85;97751.97;5062204;28;20372;-76
2023/01/16 12:00:23;;;;;;;;;;;;;;;4.44;98.19;97748.94;5064453;28;20032;-78
2023/01/16 12:03:10;;;;;;;0.80;0.57;;;;;;;4.48;98.27;97745.03;5060187;28;19912;-78
2023/01/16 12:06:14;;;;;;;2.28;0.63;;;;;;;4.42;97.93;97730.38;5055537;28;20077;-77
2023/01/16 12:08:49;;;;;;;1.38;0.60;;;;;;;4.55;98.55;97728.84;5059963;28;20048;-78
2023/01/16 12:11:55;;;;;;;3.10;0.57;;;;;;;4.49;97.63;97720.94;5074852;28;20040;-77
2023/01/16 12:14:37;;;;;;;0.90;0.60;;;;;;;4.53;97.83;97723.13;5066355;28;20043;-78
2023/01/16 12:17:12;;;;;;;3.17;1.58;;;;;;;4.52;98.28;97708.72;5055030;28;20045;-77
2023/01/16 12:20:13;;;;;;;0.82;0.63;;;;;;;4.51;98.63;97696.88;5057377;28;20040;-77
2023/01/16 12:23:07;;;;;;;4.95;0.75;;;;;;;4.45;99.48;97698.44;5061529;28;20040;-77
2023/01/16 12:25:44;;;;;;;3.28;0.80;;;;;;;4.49;98.58;97679.88;5070645;28;20090;-78
2023/01/16 12:28:32;;;;;;;1.27;0.68;;;;;;;4.53;99.31;97671.81;5048232;28;20028;-78
2023/01/16 12:31:26;;;;;;;2.08;0.60;;;;;;;4.60;99.46;97665.72;5059567;28;20032;-77
2023/01/16 12:34:19;;;;;;;3.10;0.80;;;;;;;4.62;98.33;97650.13;5062555;28;20036;-79
2023/01/16 12:37:24;;;;;;;2.17;1.35;;;;;;;4.64;97.22;97651.50;5062022;28;20037;-76
2023/01/16 12:40:09;;;;;;;3.33;0.70;;;;;;;4.66;97.20;97646.19;5058684;28;20044;-77
2023/01/16 12:45:43;;;;;;;2.00;0.68;;;;;;;4.59;98.99;97647.94;5054382;28;20044;-77
2023/01/16 12:48:23;;;;;;;1.67;0.70;;;;;;;4.44;100.00;97623.22;5068165;28;20127;-76